sensor_id;sensor_type;location;lat;lon;timestamp;pressure;altitude;pressure_sealevel;temperature;humidity
80585;BME280;70137;56.482;9.154;2024-01-30T00:00:36;102579.78;;;5.41;100.00
80585;BME280;70137;56.482;9.154;2024-01-30T00:03:02;102589.22;;;5.41;100.00
80585;BME280;70137;56.482;9.154;2024-01-30T00:05:27;102578.84;;;5.42;100.00
80585;BME280;70137;56.482;9.154;2024-01-30T00:07:52;102576.28;;;5.42;100.00
80585;BME280;70137;56.482;9.154;2024-01-30T00:10:17;102572.78;;;5.43;100.00
80585;BME280;70137;56.482;9.154;2024-01-30T00:12:43;102566.00;;;5.42;100.00
80585;BME280;70137;56.482;9.154;2024-01-30T00:15:08;102564.34;;;5.41;100.00
80585;BME280;70137;56.482;9.154;2024-01-30T00:17:38;102563.50;;;5.41;100.00
80585;BME280;70137;56.482;9.154;2024-01-30T00:20:04;102559.19;;;5.41;100.00
80585;BME280;70137;56.482;9.154;2024-01-30T00:22:31;102546.47;;;5.38;100.00
80585;BME280;70137;56.482;9.154;2024-01-30T00:24:57;102555.13;;;5.37;100.00
80585;BME280;70137;56.482;9.154;2024-01-30T00:27:22;102550.06;;;5.36;100.00
80585;BME280;70137;56.482;9.154;2024-01-30T00:29:47;102548.41;;;5.35;100.00
80585;BME280;70137;56.482;9.154;2024-01-30T00:32:12;102549.06;;;5.38;100.00
80585;BME280;70137;56.482;9.154;2024-01-30T00:34:38;102554.19;;;5.38;100.00
80585;BME280;70137;56.482;9.154;2024-01-30T00:37:03;102550.72;;;5.39;100.00
80585;BME280;70137;56.482;9.154;2024-01-30T00:39:29;102555.84;;;5.39;100.00
80585;BME280;70137;56.482;9.154;2024-01-30T00:41:54;102559.34;;;5.38;100.00
80585;BME280;70137;56.482;9.154;2024-01-30T00:44:19;102557.03;;;5.34;100.00
80585;BME280;70137;56.482;9.154;2024-01-30T00:46:45;102559.53;;;5.35;100.00
80585;BME280;70137;56.482;9.154;2024-01-30T00:49:10;102559.34;;;5.38;100.00
80585;BME280;70137;56.482;9.154;2024-01-30T00:51:36;102547.31;;;5.39;100.00
80585;BME280;70137;56.482;9.154;2024-01-30T00:54:01;102541.53;;;5.35;100.00
80585;BME280;70137;56.482;9.154;2024-01-30T00:56:28;102537.47;;;5.31;100.00
80585;BME280;70137;56.482;9.154;2024-01-30T00:58:53;102541.84;;;5.29;100.00
80585;BME280;70137;56.482;9.154;2024-01-30T01:01:18;102549.75;;;5.26;100.00
80585;BME280;70137;56.482;9.154;2024-01-30T01:03:44;102540.47;;;5.24;100.00
80585;BME280;70137;56.482;9.154;2024-01-30T01:06:09;102541.47;;;5.21;100.00
80585;BME280;70137;56.482;9.154;2024-01-30T01:08:36;102550.00;;;5.22;100.00
80585;BME280;70137;56.482;9.154;2024-01-30T01:11:01;102527.69;;;5.22;100.00
80585;BME280;70137;56.482;9.154;2024-01-30T01:13:26;102525.88;;;5.24;100.00
80585;BME280;70137;56.482;9.154;2024-01-30T01:15:51;102535.97;;;5.27;100.00
80585;BME280;70137;56.482;9.154;2024-01-30T01:18:17;102517.06;;;5.28;100.00
80585;BME280;70137;56.482;9.154;2024-01-30T01:20:42;102519.38;;;5.33;100.00
80585;BME280;70137;56.482;9.154;2024-01-30T01:23:08;102515.91;;;5.34;100.00
80585;BME280;70137;56.482;9.154;2024-01-30T01:25:33;102509.75;;;5.36;100.00
80585;BME280;70137;56.482;9.154;2024-01-30T01:27:58;102518.19;;;5.38;100.00
80585;BME280;70137;56.482;9.154;2024-01-30T01:30:26;102522.38;;;5.41;100.00
80585;BME280;70137;56.482;9.154;2024-01-30T01:32:51;102513.72;;;5.42;100.00
80585;BME280;70137;56.482;9.154;2024-01-30T01:35:21;102521.34;;;5.43;100.00
80585;BME280;70137;56.482;9.154;2024-01-30T01:37:48;102517.88;;;5.44;100.00
80585;BME280;70137;56.482;9.154;2024-01-30T01:40:20;102512.53;;;5.47;100.00
80585;BME280;70137;56.482;9.154;2024-01-30T01:42:45;102509.97;;;5.47;100.00
80585;BME280;70137;56.482;9.154;2024-01-30T01:45:10;102507.38;;;5.47;100.00
80585;BME280;70137;56.482;9.154;2024-01-30T01:47:36;102503.25;;;5.45;100.00
80585;BME280;70137;56.482;9.154;2024-01-30T01:50:01;102493.06;;;5.43;100.00
80585;BME280;70137;56.482;9.154;2024-01-30T01:52:27;102495.63;;;5.43;100.00
80585;BME280;70137;56.482;9.154;2024-01-30T01:54:53;102493.97;;;5.42;100.00
80585;BME280;70137;56.482;9.154;2024-01-30T01:57:19;102501.69;;;5.42;100.00
80585;BME280;70137;56.482;9.154;2024-01-30T01:59:44;102493.97;;;5.42;100.00
80585;BME280;70137;56.482;9.154;2024-01-30T02:02:11;102490.56;;;5.42;100.00
80585;BME280;70137;56.482;9.154;2024-01-30T02:04:38;102488.94;;;5.41;100.00
80585;BME280;70137;56.482;9.154;2024-01-30T02:07:03;102487.19;;;5.41;100.00
80585;BME280;70137;56.482;9.154;2024-01-30T02:09:28;102483.69;;;5.42;100.00
80585;BME280;70137;56.482;9.154;2024-01-30T02:11:54;102482.78;;;5.43;100.00
80585;BME280;70137;56.482;9.154;2024-01-30T02:14:20;102465.78;;;5.41;100.00
80585;BME280;70137;56.482;9.154;2024-01-30T02:16:45;102468.41;;;5.39;100.00
80585;BME280;70137;56.482;9.154;2024-01-30T02:19:10;102475.16;;;5.42;100.00
80585;BME280;70137;56.482;9.154;2024-01-30T02:21:36;102480.38;;;5.40;100.00
80585;BME280;70137;56.482;9.154;2024-01-30T02:24:02;102487.19;;;5.41;100.00
80585;BME280;70137;56.482;9.154;2024-01-30T02:26:28;102486.34;;;5.41;100.00
80585;BME280;70137;56.482;9.154;2024-01-30T02:28:54;102487.19;;;5.41;100.00
80585;BME280;70137;56.482;9.154;2024-01-30T02:31:19;102481.28;;;5.39;100.00
80585;BME280;70137;56.482;9.154;2024-01-30T02:33:44;102476.13;;;5.39;100.00
80585;BME280;70137;56.482;9.154;2024-01-30T02:36:10;102470.97;;;5.39;100.00
80585;BME280;70137;56.482;9.154;2024-01-30T02:38:35;102459.81;;;5.40;100.00
80585;BME280;70137;56.482;9.154;2024-01-30T02:41:00;102466.59;;;5.41;100.00
80585;BME280;70137;56.482;9.154;2024-01-30T02:43:26;102458.13;;;5.39;100.00
80585;BME280;70137;56.482;9.154;2024-01-30T02:45:52;102459.22;;;5.35;100.00
80585;BME280;70137;56.482;9.154;2024-01-30T02:48:17;102450.78;;;5.33;100.00
80585;BME280;70137;56.482;9.154;2024-01-30T02:50:43;102444.81;;;5.33;100.00
80585;BME280;70137;56.482;9.154;2024-01-30T02:53:08;102437.09;;;5.33;100.00
80585;BME280;70137;56.482;9.154;2024-01-30T02:55:33;102429.47;;;5.31;100.00
80585;BME280;70137;56.482;9.154;2024-01-30T02:57:59;102432.78;;;5.33;100.00
80585;BME280;70137;56.482;9.154;2024-01-30T03:00:24;102434.44;;;5.34;100.00
80585;BME280;70137;56.482;9.154;2024-01-30T03:02:49;102430.13;;;5.35;100.00
80585;BME280;70137;56.482;9.154;2024-01-30T03:05:15;102425.78;;;5.35;100.00
80585;BME280;70137;56.482;9.154;2024-01-30T03:07:40;102425.78;;;5.35;100.00
80585;BME280;70137;56.482;9.154;2024-01-30T03:10:06;102418.00;;;5.37;100.00
80585;BME280;70137;56.482;9.154;2024-01-30T03:12:32;102422.13;;;5.39;100.00
80585;BME280;70137;56.482;9.154;2024-01-30T03:14:57;102427.25;;;5.39;100.00
80585;BME280;70137;56.482;9.154;2024-01-30T03:17:22;102421.22;;;5.40;100.00
80585;BME280;70137;56.482;9.154;2024-01-30T03:19:49;102421.97;;;5.42;100.00
80585;BME280;70137;56.482;9.154;2024-01-30T03:22:14;102416.00;;;5.42;100.00
80585;BME280;70137;56.482;9.154;2024-01-30T03:24:40;102415.81;;;5.45;100.00
80585;BME280;70137;56.482;9.154;2024-01-30T03:27:05;102425.28;;;5.44;100.00
80585;BME280;70137;56.482;9.154;2024-01-30T03:29:30;102421.13;;;5.42;100.00
80585;BME280;70137;56.482;9.154;2024-01-30T03:31:56;102424.53;;;5.42;100.00
80585;BME280;70137;56.482;9.154;2024-01-30T03:34:21;102421.03;;;5.43;100.00
80585;BME280;70137;56.482;9.154;2024-01-30T03:36:46;102420.31;;;5.41;100.00
80585;BME280;70137;56.482;9.154;2024-01-30T03:39:12;102420.31;;;5.41;100.00
80585;BME280;70137;56.482;9.154;2024-01-30T03:41:37;102409.25;;;5.39;100.00
80585;BME280;70137;56.482;9.154;2024-01-30T03:44:02;102417.91;;;5.38;100.00
80585;BME280;70137;56.482;9.154;2024-01-30T03:46:28;102415.31;;;5.38;100.00
80585;BME280;70137;56.482;9.154;2024-01-30T03:48:53;102412.75;;;5.38;100.00
80585;BME280;70137;56.482;9.154;2024-01-30T03:51:19;102401.72;;;5.36;100.00
80585;BME280;70137;56.482;9.154;2024-01-30T03:53:44;102403.38;;;5.37;100.00
80585;BME280;70137;56.482;9.154;2024-01-30T03:56:11;102400.91;;;5.36;100.00
80585;BME280;70137;56.482;9.154;2024-01-30T03:58:38;102403.47;;;5.36;100.00
80585;BME280;70137;56.482;9.154;2024-01-30T04:01:03;102396.69;;;5.35;100.00
80585;BME280;70137;56.482;9.154;2024-01-30T04:03:28;102394.94;;;5.35;100.00
80585;BME280;70137;56.482;9.154;2024-01-30T04:05:54;102386.41;;;5.35;100.00
80585;BME280;70137;56.482;9.154;2024-01-30T04:08:19;102387.41;;;5.32;100.00
80585;BME280;70137;56.482;9.154;2024-01-30T04:10:46;102389.06;;;5.33;100.00
80585;BME280;70137;56.482;9.154;2024-01-30T04:13:12;102391.63;;;5.33;100.00
80585;BME280;70137;56.482;9.154;2024-01-30T04:15:37;102385.66;;;5.33;100.00
80585;BME280;70137;56.482;9.154;2024-01-30T04:18:02;102391.63;;;5.33;100.00
80585;BME280;70137;56.482;9.154;2024-01-30T04:20:29;102388.16;;;5.34;100.00
80585;BME280;70137;56.482;9.154;2024-01-30T04:22:54;102377.84;;;5.34;100.00
80585;BME280;70137;56.482;9.154;2024-01-30T04:25:19;102375.28;;;5.34;100.00
80585;BME280;70137;56.482;9.154;2024-01-30T04:27:45;102364.00;;;5.37;100.00
80585;BME280;70137;56.482;9.154;2024-01-30T04:30:11;102365.53;;;5.39;100.00
80585;BME280;70137;56.482;9.154;2024-01-30T04:32:36;102357.00;;;5.39;100.00
80585;BME280;70137;56.482;9.154;2024-01-30T04:35:02;102353.59;;;5.38;100.00
80585;BME280;70137;56.482;9.154;2024-01-30T04:37:28;102349.28;;;5.39;100.00
80585;BME280;70137;56.482;9.154;2024-01-30T04:39:53;102345.88;;;5.38;100.00
80585;BME280;70137;56.482;9.154;2024-01-30T04:42:19;102350.94;;;5.40;100.00
80585;BME280;70137;56.482;9.154;2024-01-30T04:44:44;102346.66;;;5.40;100.00
80585;BME280;70137;56.482;9.154;2024-01-30T04:47:10;102343.31;;;5.38;100.00
80585;BME280;70137;56.482;9.154;2024-01-30T04:49:38;102339.81;;;5.39;100.00
80585;BME280;70137;56.482;9.154;2024-01-30T04:52:08;102339.81;;;5.39;100.00
80585;BME280;70137;56.482;9.154;2024-01-30T04:54:34;102346.66;;;5.40;100.00
80585;BME280;70137;56.482;9.154;2024-01-30T04:57:00;102353.59;;;5.38;100.00
80585;BME280;70137;56.482;9.154;2024-01-30T04:59:26;102373.34;;;5.38;100.00
80585;BME280;70137;56.482;9.154;2024-01-30T05:01:51;102364.72;;;5.39;100.00
80585;BME280;70137;56.482;9.154;2024-01-30T05:04:16;102361.31;;;5.38;100.00
80585;BME280;70137;56.482;9.154;2024-01-30T05:06:42;102362.34;;;5.36;100.00
80585;BME280;70137;56.482;9.154;2024-01-30T05:09:08;102351.94;;;5.37;100.00
80585;BME280;70137;56.482;9.154;2024-01-30T05:11:40;102355.34;;;5.38;100.00
80585;BME280;70137;56.482;9.154;2024-01-30T05:14:06;102349.28;;;5.39;100.00
80585;BME280;70137;56.482;9.154;2024-01-30T05:16:32;102344.97;;;5.39;100.00
80585;BME280;70137;56.482;9.154;2024-01-30T05:18:58;102343.97;;;5.42;100.00
80585;BME280;70137;56.482;9.154;2024-01-30T05:21:23;102342.34;;;5.41;100.00
80585;BME280;70137;56.482;9.154;2024-01-30T05:23:49;102328.66;;;5.40;100.00
80585;BME280;70137;56.482;9.154;2024-01-30T05:26:14;102321.75;;;5.41;100.00
80585;BME280;70137;56.482;9.154;2024-01-30T05:28:39;102307.97;;;5.42;100.00
80585;BME280;70137;56.482;9.154;2024-01-30T05:31:05;102300.25;;;5.42;100.00
80585;BME280;70137;56.482;9.154;2024-01-30T05:33:30;102308.81;;;5.42;100.00
80585;BME280;70137;56.482;9.154;2024-01-30T05:35:55;102302.75;;;5.43;100.00
80585;BME280;70137;56.482;9.154;2024-01-30T05:38:21;102301.72;;;5.46;100.00
80585;BME280;70137;56.482;9.154;2024-01-30T05:40:46;102295.66;;;5.47;100.00
80585;BME280;70137;56.482;9.154;2024-01-30T05:43:12;102284.44;;;5.48;100.00
80585;BME280;70137;56.482;9.154;2024-01-30T05:45:37;102289.50;;;5.50;100.00
80585;BME280;70137;56.482;9.154;2024-01-30T05:48:03;102281.72;;;5.51;100.00
80585;BME280;70137;56.482;9.154;2024-01-30T05:50:29;102271.31;;;5.53;100.00
80585;BME280;70137;56.482;9.154;2024-01-30T05:52:54;102284.19;;;5.53;100.00
80585;BME280;70137;56.482;9.154;2024-01-30T05:55:20;102280.69;;;5.54;100.00
80585;BME280;70137;56.482;9.154;2024-01-30T05:57:45;102289.13;;;5.56;100.00
80585;BME280;70137;56.482;9.154;2024-01-30T06:00:11;102291.72;;;5.56;100.00
80585;BME280;70137;56.482;9.154;2024-01-30T06:02:36;102286.56;;;5.56;100.00
80585;BME280;70137;56.482;9.154;2024-01-30T06:05:02;102283.06;;;5.57;100.00
80585;BME280;70137;56.482;9.154;2024-01-30T06:07:27;102269.28;;;5.58;100.00
80585;BME280;70137;56.482;9.154;2024-01-30T06:09:52;102266.72;;;5.58;100.00
80585;BME280;70137;56.482;9.154;2024-01-30T06:12:18;102260.66;;;5.59;100.00
80585;BME280;70137;56.482;9.154;2024-01-30T06:14:43;102256.25;;;5.61;100.00
80585;BME280;70137;56.482;9.154;2024-01-30T06:17:08;102261.41;;;5.61;100.00
80585;BME280;70137;56.482;9.154;2024-01-30T06:19:34;102251.00;;;5.62;100.00
80585;BME280;70137;56.482;9.154;2024-01-30T06:21:59;102245.78;;;5.64;100.00
80585;BME280;70137;56.482;9.154;2024-01-30T06:24:25;102236.19;;;5.66;100.00
80585;BME280;70137;56.482;9.154;2024-01-30T06:26:50;102232.59;;;5.68;100.00
80585;BME280;70137;56.482;9.154;2024-01-30T06:29:16;102228.28;;;5.69;100.00
80585;BME280;70137;56.482;9.154;2024-01-30T06:31:42;102222.25;;;5.70;100.00
80585;BME280;70137;56.482;9.154;2024-01-30T06:34:08;102222.25;;;5.70;100.00
80585;BME280;70137;56.482;9.154;2024-01-30T06:36:34;102215.34;;;5.70;100.00
80585;BME280;70137;56.482;9.154;2024-01-30T06:39:00;102202.38;;;5.72;100.00
80585;BME280;70137;56.482;9.154;2024-01-30T06:41:25;102205.69;;;5.74;100.00
80585;BME280;70137;56.482;9.154;2024-01-30T06:43:50;102196.22;;;5.74;100.00
80585;BME280;70137;56.482;9.154;2024-01-30T06:46:16;102189.31;;;5.75;100.00
80585;BME280;70137;56.482;9.154;2024-01-30T06:48:41;102183.25;;;5.76;100.00
80585;BME280;70137;56.482;9.154;2024-01-30T06:51:10;102190.13;;;5.75;100.00
80585;BME280;70137;56.482;9.154;2024-01-30T06:53:35;102198.59;;;5.78;100.00
80585;BME280;70137;56.482;9.154;2024-01-30T06:56:01;102199.34;;;5.80;100.00
80585;BME280;70137;56.482;9.154;2024-01-30T06:58:26;102218.06;;;5.82;100.00
80585;BME280;70137;56.482;9.154;2024-01-30T07:00:51;102203.47;;;5.82;100.00
80585;BME280;70137;56.482;9.154;2024-01-30T07:03:17;102211.91;;;5.84;100.00
80585;BME280;70137;56.482;9.154;2024-01-30T07:05:42;102210.88;;;5.87;100.00
80585;BME280;70137;56.482;9.154;2024-01-30T07:08:08;102210.88;;;5.87;100.00
80585;BME280;70137;56.482;9.154;2024-01-30T07:10:33;102216.72;;;5.90;100.00
80585;BME280;70137;56.482;9.154;2024-01-30T07:13:00;102208.06;;;5.91;100.00
80585;BME280;70137;56.482;9.154;2024-01-30T07:15:26;102223.31;;;5.94;100.00
80585;BME280;70137;56.482;9.154;2024-01-30T07:17:51;102211.97;;;5.97;100.00
80585;BME280;70137;56.482;9.154;2024-01-30T07:20:16;102205.91;;;5.98;100.00
80585;BME280;70137;56.482;9.154;2024-01-30T07:22:45;102200.75;;;5.98;100.00
80585;BME280;70137;56.482;9.154;2024-01-30T07:25:10;102200.69;;;5.99;100.00
80585;BME280;70137;56.482;9.154;2024-01-30T07:27:35;102185.25;;;5.99;100.00
80585;BME280;70137;56.482;9.154;2024-01-30T07:30:01;102189.56;;;5.99;100.00
80585;BME280;70137;56.482;9.154;2024-01-30T07:32:27;102182.66;;;5.99;100.00
80585;BME280;70137;56.482;9.154;2024-01-30T07:34:52;102169.69;;;6.01;100.00
80585;BME280;70137;56.482;9.154;2024-01-30T07:37:18;102179.16;;;6.00;100.00
80585;BME280;70137;56.482;9.154;2024-01-30T07:39:43;102177.31;;;6.02;100.00
80585;BME280;70137;56.482;9.154;2024-01-30T07:42:10;102177.09;;;6.06;100.00
80585;BME280;70137;56.482;9.154;2024-01-30T07:44:35;102169.28;;;6.07;100.00
80585;BME280;70137;56.482;9.154;2024-01-30T07:47:01;102168.06;;;6.13;100.00
80585;BME280;70137;56.482;9.154;2024-01-30T07:49:26;102166.22;;;6.15;100.00
80585;BME280;70137;56.482;9.154;2024-01-30T07:51:52;102161.78;;;6.17;100.00
80585;BME280;70137;56.482;9.154;2024-01-30T07:54:17;102156.63;;;6.17;100.00
80585;BME280;70137;56.482;9.154;2024-01-30T07:56:42;102153.16;;;6.18;100.00
80585;BME280;70137;56.482;9.154;2024-01-30T07:59:11;102147.09;;;6.19;100.00
80585;BME280;70137;56.482;9.154;2024-01-30T08:01:37;102150.47;;;6.19;100.00
80585;BME280;70137;56.482;9.154;2024-01-30T08:04:03;102147.09;;;6.19;100.00
80585;BME280;70137;56.482;9.154;2024-01-30T08:06:28;102150.59;;;6.18;100.00
80585;BME280;70137;56.482;9.154;2024-01-30T08:08:53;102144.69;;;6.16;100.00
80585;BME280;70137;56.482;9.154;2024-01-30T08:11:22;102142.88;;;6.18;100.00
80585;BME280;70137;56.482;9.154;2024-01-30T08:13:51;102139.34;;;6.19;100.00
80585;BME280;70137;56.482;9.154;2024-01-30T08:16:17;102136.78;;;6.19;100.00
80585;BME280;70137;56.482;9.154;2024-01-30T08:18:43;102132.47;;;6.19;100.00
80585;BME280;70137;56.482;9.154;2024-01-30T08:21:08;102135.84;;;6.20;100.00
80585;BME280;70137;56.482;9.154;2024-01-30T08:23:34;102127.22;;;6.21;100.00
80585;BME280;70137;56.482;9.154;2024-01-30T08:25:59;102134.81;;;6.22;100.00
80585;BME280;70137;56.482;9.154;2024-01-30T08:28:25;102138.22;;;6.23;100.00
80585;BME280;70137;56.482;9.154;2024-01-30T08:30:51;102145.03;;;6.24;100.00
80585;BME280;70137;56.482;9.154;2024-01-30T08:33:16;102138.94;;;6.25;100.00
80585;BME280;70137;56.482;9.154;2024-01-30T08:35:42;102143.16;;;6.26;100.00
80585;BME280;70137;56.482;9.154;2024-01-30T08:38:07;102147.50;;;6.25;100.00
80585;BME280;70137;56.482;9.154;2024-01-30T08:40:32;102132.97;;;6.24;100.00
80585;BME280;70137;56.482;9.154;2024-01-30T08:42:58;102136.47;;;6.23;100.00
80585;BME280;70137;56.482;9.154;2024-01-30T08:45:23;102135.66;;;6.23;100.00
80585;BME280;70137;56.482;9.154;2024-01-30T08:47:49;102127.09;;;6.22;100.00
80585;BME280;70137;56.482;9.154;2024-01-30T08:50:14;102127.81;;;6.24;100.00
80585;BME280;70137;56.482;9.154;2024-01-30T08:52:39;102130.38;;;6.24;100.00
80585;BME280;70137;56.482;9.154;2024-01-30T08:55:05;102114.13;;;6.24;100.00
80585;BME280;70137;56.482;9.154;2024-01-30T08:57:30;102119.97;;;6.26;100.00
80585;BME280;70137;56.482;9.154;2024-01-30T08:59:56;102109.69;;;6.26;100.00
80585;BME280;70137;56.482;9.154;2024-01-30T09:02:21;102105.28;;;6.28;100.00
80585;BME280;70137;56.482;9.154;2024-01-30T09:04:47;102100.97;;;6.28;100.00
80585;BME280;70137;56.482;9.154;2024-01-30T09:07:12;102112.91;;;6.29;100.00
80585;BME280;70137;56.482;9.154;2024-01-30T09:09:39;102111.16;;;6.30;100.00
80585;BME280;70137;56.482;9.154;2024-01-30T09:12:07;102117.94;;;6.31;100.00
80585;BME280;70137;56.482;9.154;2024-01-30T09:14:35;102107.44;;;6.34;100.00
80585;BME280;70137;56.482;9.154;2024-01-30T09:17:00;102099.69;;;6.34;100.00
80585;BME280;70137;56.482;9.154;2024-01-30T09:19:26;102105.56;;;6.36;100.00
80585;BME280;70137;56.482;9.154;2024-01-30T09:21:51;102117.56;;;6.37;100.00
80585;BME280;70137;56.482;9.154;2024-01-30T09:24:17;102096.72;;;6.40;100.00
80585;BME280;70137;56.482;9.154;2024-01-30T09:26:42;102096.50;;;6.43;100.00
80585;BME280;70137;56.482;9.154;2024-01-30T09:29:08;102087.84;;;6.44;100.00
80585;BME280;70137;56.482;9.154;2024-01-30T09:31:33;102097.97;;;6.47;100.00
80585;BME280;70137;56.482;9.154;2024-01-30T09:33:58;102084.88;;;6.50;100.00
80585;BME280;70137;56.482;9.154;2024-01-30T09:36:24;102076.75;;;6.56;100.00
80585;BME280;70137;56.482;9.154;2024-01-30T09:38:49;102072.81;;;6.64;100.00
80585;BME280;70137;56.482;9.154;2024-01-30T09:41:15;102089.72;;;6.68;100.00
80585;BME280;70137;56.482;9.154;2024-01-30T09:43:41;102138.13;;;6.75;100.00
80585;BME280;70137;56.482;9.154;2024-01-30T09:46:15;102133.63;;;6.79;100.00
80585;BME280;70137;56.482;9.154;2024-01-30T09:48:41;102084.53;;;6.80;100.00
80585;BME280;70137;56.482;9.154;2024-01-30T09:51:09;102098.97;;;6.83;100.00
80585;BME280;70137;56.482;9.154;2024-01-30T09:53:35;102095.44;;;6.84;100.00
80585;BME280;70137;56.482;9.154;2024-01-30T09:56:02;102093.63;;;6.86;100.00
80585;BME280;70137;56.482;9.154;2024-01-30T09:58:27;102094.44;;;6.86;100.00
80585;BME280;70137;56.482;9.154;2024-01-30T10:00:53;102091.75;;;6.88;100.00
80585;BME280;70137;56.482;9.154;2024-01-30T10:03:19;102086.59;;;6.88;100.00
80585;BME280;70137;56.482;9.154;2024-01-30T10:05:51;102091.75;;;6.88;100.00
80585;BME280;70137;56.482;9.154;2024-01-30T10:08:19;102081.44;;;6.88;100.00
80585;BME280;70137;56.482;9.154;2024-01-30T10:10:46;102067.63;;;6.89;100.00
80585;BME280;70137;56.482;9.154;2024-01-30T10:13:12;102057.31;;;6.89;100.00
80585;BME280;70137;56.482;9.154;2024-01-30T10:15:37;102063.16;;;6.91;100.00
80585;BME280;70137;56.482;9.154;2024-01-30T10:18:04;102059.56;;;6.94;100.00
80585;BME280;70137;56.482;9.154;2024-01-30T10:20:32;102074.81;;;6.97;100.00
80585;BME280;70137;56.482;9.154;2024-01-30T10:22:57;102054.78;;;7.00;100.00
80585;BME280;70137;56.482;9.154;2024-01-30T10:25:22;102055.50;;;7.02;100.00
80585;BME280;70137;56.482;9.154;2024-01-30T10:27:55;102047.56;;;7.05;100.00
80585;BME280;70137;56.482;9.154;2024-01-30T10:30:24;102045.72;;;7.07;100.00
80585;BME280;70137;56.482;9.154;2024-01-30T10:32:50;102045.72;;;7.07;100.00
80585;BME280;70137;56.482;9.154;2024-01-30T10:35:16;102032.00;;;7.07;100.00
80585;BME280;70137;56.482;9.154;2024-01-30T10:37:47;102031.88;;;7.08;100.00
80585;BME280;70137;56.482;9.154;2024-01-30T10:40:13;102031.16;;;7.06;100.00
80585;BME280;70137;56.482;9.154;2024-01-30T10:42:42;102049.94;;;7.08;100.00
80585;BME280;70137;56.482;9.154;2024-01-30T10:45:10;102047.34;;;7.08;100.00
80585;BME280;70137;56.482;9.154;2024-01-30T10:47:39;102041.25;;;7.09;100.00
80585;BME280;70137;56.482;9.154;2024-01-30T10:50:05;102014.78;;;7.07;100.00
80585;BME280;70137;56.482;9.154;2024-01-30T10:52:32;102007.75;;;7.09;100.00
80585;BME280;70137;56.482;9.154;2024-01-30T10:54:58;102021.34;;;7.11;100.00
80585;BME280;70137;56.482;9.154;2024-01-30T10:57:24;102026.50;;;7.11;100.00
80585;BME280;70137;56.482;9.154;2024-01-30T10:59:51;102022.16;;;7.12;100.00
80585;BME280;70137;56.482;9.154;2024-01-30T11:02:18;102009.97;;;7.14;100.00
80585;BME280;70137;56.482;9.154;2024-01-30T11:04:45;102006.25;;;7.18;100.00
80585;BME280;70137;56.482;9.154;2024-01-30T11:07:15;101984.81;;;7.17;100.00
80585;BME280;70137;56.482;9.154;2024-01-30T11:09:48;101988.22;;;7.18;100.00
80585;BME280;70137;56.482;9.154;2024-01-30T11:12:14;101972.63;;;7.20;100.00
80585;BME280;70137;56.482;9.154;2024-01-30T11:14:39;101970.63;;;7.23;100.00
80585;BME280;70137;56.482;9.154;2024-01-30T11:17:05;101965.38;;;7.25;100.00
80585;BME280;70137;56.482;9.154;2024-01-30T11:19:31;101970.31;;;7.28;100.00
80585;BME280;70137;56.482;9.154;2024-01-30T11:21:57;101955.78;;;7.27;100.00
80585;BME280;70137;56.482;9.154;2024-01-30T11:24:23;101958.13;;;7.30;100.00
80585;BME280;70137;56.482;9.154;2024-01-30T11:26:49;101966.56;;;7.32;100.00
80585;BME280;70137;56.482;9.154;2024-01-30T11:29:17;101969.88;;;7.34;100.00
80585;BME280;70137;56.482;9.154;2024-01-30T11:31:52;101968.81;;;7.36;100.00
80585;BME280;70137;56.482;9.154;2024-01-30T11:34:19;101975.63;;;7.37;100.00
80585;BME280;70137;56.482;9.154;2024-01-30T11:36:51;101977.25;;;7.38;100.00
80585;BME280;70137;56.482;9.154;2024-01-30T11:39:19;101983.94;;;7.41;100.00
80585;BME280;70137;56.482;9.154;2024-01-30T11:41:45;101983.94;;;7.41;100.00
80585;BME280;70137;56.482;9.154;2024-01-30T11:44:11;101986.31;;;7.44;100.00
80585;BME280;70137;56.482;9.154;2024-01-30T11:46:36;101972.69;;;7.42;100.00
80585;BME280;70137;56.482;9.154;2024-01-30T11:49:02;101974.56;;;7.40;100.00
80585;BME280;70137;56.482;9.154;2024-01-30T11:51:28;101963.66;;;7.36;100.00
80585;BME280;70137;56.482;9.154;2024-01-30T11:53:57;101961.28;;;7.33;100.00
80585;BME280;70137;56.482;9.154;2024-01-30T11:56:23;101964.09;;;7.30;100.00
80585;BME280;70137;56.482;9.154;2024-01-30T11:58:50;101961.88;;;7.26;100.00
80585;BME280;70137;56.482;9.154;2024-01-30T12:01:17;101961.25;;;7.22;100.00
80585;BME280;70137;56.482;9.154;2024-01-30T12:03:43;101943.31;;;7.21;100.00
80585;BME280;70137;56.482;9.154;2024-01-30T12:06:15;101941.66;;;7.20;100.00
80585;BME280;70137;56.482;9.154;2024-01-30T12:08:41;101950.34;;;7.18;100.00
80585;BME280;70137;56.482;9.154;2024-01-30T12:11:07;101959.03;;;7.17;100.00
80585;BME280;70137;56.482;9.154;2024-01-30T12:13:32;101960.06;;;7.15;100.00
80585;BME280;70137;56.482;9.154;2024-01-30T12:15:59;101955.94;;;7.12;100.00
80585;BME280;70137;56.482;9.154;2024-01-30T12:18:24;101954.28;;;7.11;100.00
80585;BME280;70137;56.482;9.154;2024-01-30T12:20:59;101954.53;;;7.08;100.00
80585;BME280;70137;56.482;9.154;2024-01-30T12:23:26;101937.53;;;7.06;100.00
80585;BME280;70137;56.482;9.154;2024-01-30T12:25:52;101935.78;;;7.06;100.00
80585;BME280;70137;56.482;9.154;2024-01-30T12:28:19;101929.88;;;7.04;100.00
80585;BME280;70137;56.482;9.154;2024-01-30T12:30:44;101922.25;;;7.03;100.00
80585;BME280;70137;56.482;9.154;2024-01-30T12:33:16;101899.16;;;7.01;100.00
80585;BME280;70137;56.482;9.154;2024-01-30T12:35:45;101882.88;;;7.01;100.00
80585;BME280;70137;56.482;9.154;2024-01-30T12:38:11;101892.38;;;7.00;100.00
80585;BME280;70137;56.482;9.154;2024-01-30T12:40:36;101902.69;;;7.00;100.00
80585;BME280;70137;56.482;9.154;2024-01-30T12:43:02;101908.66;;;7.01;100.00